createdAt,value
2023-04-05T00:00:11.372Z,101237.56
2023-04-05T00:05:15.233Z,101256.75
2023-04-05T00:10:36.721Z,101265.63
2023-04-05T00:15:58.667Z,101256.16
2023-04-05T00:21:23.343Z,101264.34
2023-04-05T00:26:27.003Z,101245.44
2023-04-05T00:31:33.555Z,101241.13
2023-04-05T00:36:36.779Z,101241.00
2023-04-05T00:41:40.442Z,101246.56
2023-04-05T00:46:43.419Z,101239.47
2023-04-05T00:51:47.180Z,101222.09
2023-04-05T00:56:53.388Z,101244.88
2023-04-05T01:02:05.148Z,101236.25
2023-04-05T01:07:20.534Z,101230.47
2023-04-05T01:12:32.467Z,101251.41
2023-04-05T01:17:39.543Z,101244.50
2023-04-05T01:22:59.914Z,101253.34
2023-04-05T01:28:24.104Z,101249.00
2023-04-05T01:33:39.585Z,101232.59
2023-04-05T01:38:47.141Z,101249.16
2023-04-05T01:43:50.114Z,101236.28
2023-04-05T01:48:53.189Z,101249.38
2023-04-05T01:53:56.241Z,101238.19
2023-04-05T01:58:59.282Z,101260.25
2023-04-05T02:04:02.253Z,101246.97
2023-04-05T02:09:05.294Z,101235.03
2023-04-05T02:14:08.944Z,101213.28
2023-04-05T02:19:41.257Z,101258.53
2023-04-05T02:24:44.443Z,101235.25
2023-04-05T02:29:47.502Z,101257.06
2023-04-05T02:34:50.958Z,101232.53
2023-04-05T02:39:54.445Z,101235.25
2023-04-05T02:44:57.446Z,101236.69
2023-04-05T02:50:01.387Z,101250.59
2023-04-05T02:55:09.597Z,101235.72
2023-04-05T03:00:13.594Z,101210.09
2023-04-05T03:05:18.969Z,101220.81
2023-04-05T03:10:29.340Z,101236.91
2023-04-05T03:15:39.438Z,101226.06
2023-04-05T03:20:50.524Z,101208.50
2023-04-05T03:26:04.696Z,101227.91
2023-04-05T03:31:12.712Z,101235.31
2023-04-05T03:36:16.966Z,101241.13
2023-04-05T03:41:23.364Z,101229.44
2023-04-05T03:46:26.395Z,101245.47
2023-04-05T03:51:29.933Z,101231.47
2023-04-05T03:56:33.421Z,101231.22
2023-04-05T04:01:48.420Z,101253.22
2023-04-05T04:06:54.505Z,101227.56
2023-04-05T04:12:01.377Z,101231.47
2023-04-05T04:17:04.471Z,101243.81
2023-04-05T04:22:41.240Z,101242.63
2023-04-05T04:28:13.120Z,101219.16
2023-04-05T04:33:36.366Z,101215.19
2023-04-05T04:39:06.054Z,101248.34
2023-04-05T04:44:31.614Z,101222.84
2023-04-05T04:49:43.589Z,101227.84
2023-04-05T04:54:47.580Z,101220.41
2023-04-05T04:59:50.862Z,101206.94
2023-04-05T05:04:54.002Z,101230.50
2023-04-05T05:09:59.367Z,101215.00
2023-04-05T05:15:02.303Z,101203.28
2023-04-05T05:20:11.451Z,101199.03
2023-04-05T05:25:20.505Z,101207.38
2023-04-05T05:30:23.596Z,101203.91
2023-04-05T05:35:28.130Z,101209.75
2023-04-05T05:40:31.067Z,101208.72
2023-04-05T05:45:34.884Z,101216.56
2023-04-05T05:50:39.826Z,101217.66
2023-04-05T05:55:43.350Z,101216.19
2023-04-05T06:00:50.431Z,101215.50
2023-04-05T06:05:55.327Z,101222.25
2023-04-05T06:11:21.962Z,101217.81
2023-04-05T06:16:25.107Z,101195.78
2023-04-05T06:21:28.585Z,101195.19
2023-04-05T06:26:32.018Z,101185.16
2023-04-05T06:31:36.512Z,101202.63
2023-04-05T06:36:39.551Z,101186.03
2023-04-05T06:41:42.549Z,101182.97
2023-04-05T06:46:45.540Z,101183.59
2023-04-05T06:51:48.637Z,101169.75
2023-04-05T06:56:52.214Z,101170.59
2023-04-05T07:01:55.189Z,101154.31
2023-04-05T07:06:59.069Z,101153.56
2023-04-05T07:12:06.717Z,101167.81
2023-04-05T07:17:09.726Z,101152.84
2023-04-05T07:22:12.641Z,101167.38
2023-04-05T07:27:16.459Z,101138.75
2023-04-05T07:32:19.832Z,101140.66
2023-04-05T07:37:22.895Z,101143.00
2023-04-05T07:42:26.347Z,101136.63
2023-04-05T07:47:29.320Z,101141.19
2023-04-05T07:52:32.310Z,101155.69
2023-04-05T07:57:35.296Z,101130.38
2023-04-05T08:02:38.404Z,101118.09
2023-04-05T08:07:42.059Z,101139.97
2023-04-05T08:12:45.836Z,101126.31
2023-04-05T08:17:50.510Z,101141.38
2023-04-05T08:22:54.802Z,101121.75
2023-04-05T08:27:57.812Z,101114.03
2023-04-05T08:33:00.871Z,101113.44
2023-04-05T08:38:04.596Z,101106.13
2023-04-05T08:43:22.425Z,101118.47
2023-04-05T08:48:27.744Z,101105.25
2023-04-05T08:53:31.041Z,101103.28
2023-04-05T08:58:37.850Z,101099.38
2023-04-05T09:03:42.133Z,101087.94
2023-04-05T09:08:45.658Z,101090.88
2023-04-05T09:13:48.887Z,101091.50
2023-04-05T09:18:51.977Z,101084.94
2023-04-05T09:23:56.132Z,101085.47
2023-04-05T09:29:00.227Z,101088.69
2023-04-05T09:34:06.518Z,101090.34
2023-04-05T09:39:10.397Z,101070.72
2023-04-05T09:44:13.380Z,101080.13
2023-04-05T09:49:32.771Z,101069.91
2023-04-05T09:54:42.544Z,101070.25
2023-04-05T09:59:47.191Z,101068.38
2023-04-05T10:04:50.622Z,101065.16
2023-04-05T10:09:53.713Z,101050.81
2023-04-05T10:14:57.492Z,101055.41
2023-04-05T10:20:14.852Z,101055.53
2023-04-05T10:25:53.218Z,101056.19
2023-04-05T10:31:08.349Z,101051.44
2023-04-05T10:36:32.114Z,101032.00
2023-04-05T10:41:40.755Z,101049.38
2023-04-05T10:46:46.796Z,101040.78
2023-04-05T10:51:51.373Z,101030.78
2023-04-05T10:56:55.595Z,101050.59
2023-04-05T11:02:00.645Z,101027.34
2023-04-05T11:07:18.002Z,101028.22
2023-04-05T11:12:47.278Z,101045.31
2023-04-05T11:18:06.630Z,101030.19
2023-04-05T11:23:12.137Z,101003.91
2023-04-05T11:28:24.009Z,101015.31
2023-04-05T11:33:57.269Z,100997.06
2023-04-05T11:39:22.820Z,101033.38
2023-04-05T11:44:26.067Z,101006.50
2023-04-05T11:49:29.645Z,101008.44
2023-04-05T11:54:36.210Z,100984.69
2023-04-05T11:59:39.213Z,100982.41
2023-04-05T12:04:42.395Z,100989.47
2023-04-05T12:10:03.812Z,101001.28
2023-04-05T12:15:09.794Z,100998.13
2023-04-05T12:20:13.972Z,100984.31
2023-04-05T12:25:20.289Z,100971.38
2023-04-05T12:30:24.697Z,100976.88
2023-04-05T12:35:35.310Z,100977.41
2023-04-05T12:40:41.258Z,100979.47
2023-04-05T12:45:44.661Z,100957.47
2023-04-05T12:50:49.243Z,100966.78
2023-04-05T12:55:54.578Z,100975.78
2023-04-05T13:00:57.508Z,100972.78
2023-04-05T13:06:00.495Z,100961.97
2023-04-05T13:11:03.503Z,100961.66
2023-04-05T13:16:07.085Z,100951.69
2023-04-05T13:21:10.809Z,100980.84
2023-04-05T13:26:13.755Z,100981.06
2023-04-05T13:31:16.758Z,100969.28
2023-04-05T13:36:19.701Z,100956.94
2023-04-05T13:41:22.608Z,100965.16
2023-04-05T13:46:25.697Z,100971.19
2023-04-05T13:51:36.019Z,100953.06
2023-04-05T13:56:39.024Z,100948.25
2023-04-05T14:01:42.567Z,100975.00
2023-04-05T14:06:45.949Z,100988.81
2023-04-05T14:11:48.857Z,100969.31
2023-04-05T14:16:51.816Z,100970.03
2023-04-05T14:21:54.890Z,100968.94
2023-04-05T14:26:58.890Z,100966.00
2023-04-05T14:32:03.308Z,100965.66
2023-04-05T14:37:08.328Z,100957.69
2023-04-05T14:42:11.327Z,100988.84
2023-04-05T14:47:14.295Z,100976.22
2023-04-05T14:52:17.194Z,100967.22
2023-04-05T14:57:20.183Z,100989.91
2023-04-05T15:02:23.229Z,100982.59
2023-04-05T15:07:26.950Z,100993.09
2023-04-05T15:12:30.250Z,100994.47
2023-04-05T15:17:33.940Z,100986.44
2023-04-05T15:22:41.005Z,100990.84
2023-04-05T15:27:44.049Z,100982.50
2023-04-05T15:32:47.302Z,100997.56
2023-04-05T15:37:50.656Z,100979.09
2023-04-05T15:42:56.268Z,101000.09
2023-04-05T15:47:59.478Z,101006.00
2023-04-05T15:53:02.518Z,100993.97
2023-04-05T15:58:05.605Z,101012.84
2023-04-05T16:03:08.631Z,101014.72
2023-04-05T16:08:12.072Z,100995.44
2023-04-05T16:13:15.024Z,101008.53
2023-04-05T16:18:20.006Z,101017.94
2023-04-05T16:23:23.127Z,101046.56
2023-04-05T16:28:26.420Z,101032.22
2023-04-05T16:33:29.366Z,101051.44
2023-04-05T16:38:32.494Z,101069.28
2023-04-05T16:43:35.512Z,101057.63
2023-04-05T16:48:38.591Z,101082.88
2023-04-05T16:53:41.864Z,101067.41
2023-04-05T16:58:44.844Z,101066.06
2023-04-05T17:03:47.912Z,101086.81
2023-04-05T17:08:51.253Z,101078.91
2023-04-05T17:13:54.308Z,101090.97
2023-04-05T17:18:57.270Z,101091.75
2023-04-05T17:24:00.203Z,101069.50
2023-04-05T17:29:03.718Z,101076.66
2023-04-05T17:34:08.810Z,101094.75
2023-04-05T17:39:11.819Z,101074.91
2023-04-05T17:44:15.462Z,101101.00
2023-04-05T17:49:18.453Z,101086.34
2023-04-05T17:54:21.570Z,101087.91
2023-04-05T17:59:24.713Z,101073.91
2023-04-05T18:04:27.854Z,101092.97
2023-04-05T18:09:34.477Z,101074.59
2023-04-05T18:14:37.722Z,101077.53
2023-04-05T18:19:42.166Z,101084.75
2023-04-05T18:24:45.242Z,101086.31
2023-04-05T18:29:48.832Z,101086.63
2023-04-05T18:34:52.084Z,101073.69
2023-04-05T18:39:55.161Z,101058.19
2023-04-05T18:44:58.378Z,101060.44
2023-04-05T18:50:01.994Z,101080.47
2023-04-05T18:55:06.644Z,101072.00
2023-04-05T19:00:09.922Z,101058.59
2023-04-05T19:05:13.161Z,101062.66
2023-04-05T19:10:16.291Z,101061.31
2023-04-05T19:15:20.097Z,101060.06
2023-04-05T19:20:23.025Z,101074.94
2023-04-05T19:25:26.690Z,101078.66
2023-04-05T19:30:29.825Z,101061.56
2023-04-05T19:35:32.972Z,101060.13
2023-04-05T19:40:37.996Z,101078.59
2023-04-05T19:45:41.583Z,101066.44
2023-04-05T19:50:58.403Z,101062.72
2023-04-05T19:56:01.387Z,101084.34
2023-04-05T20:01:06.913Z,101052.09
2023-04-05T20:06:14.083Z,101044.59
2023-04-05T20:11:20.907Z,101068.28
2023-04-05T20:16:34.975Z,101078.44
2023-04-05T20:21:39.084Z,101072.50
2023-04-05T20:26:43.215Z,101086.53
2023-04-05T20:31:46.519Z,101081.94
2023-04-05T20:36:53.243Z,101102.13
2023-04-05T20:41:56.783Z,101085.31
2023-04-05T20:47:00.825Z,101098.59
2023-04-05T20:52:07.906Z,101105.44
2023-04-05T20:57:11.223Z,101088.97
2023-04-05T21:02:17.025Z,101102.66
2023-04-05T21:07:19.988Z,101101.25
2023-04-05T21:12:23.001Z,101113.75
2023-04-05T21:17:26.057Z,101092.88
2023-04-05T21:22:31.607Z,101097.78
2023-04-05T21:27:34.633Z,101104.22
2023-04-05T21:32:37.551Z,101083.19
2023-04-05T21:37:40.734Z,101091.75
2023-04-05T21:42:43.726Z,101108.88
2023-04-05T21:47:46.720Z,101099.50
2023-04-05T21:52:49.752Z,101106.69
2023-04-05T21:57:52.882Z,101092.13
2023-04-05T22:02:55.903Z,101115.56
2023-04-05T22:07:58.905Z,101095.47
2023-04-05T22:13:02.319Z,101090.88
2023-04-05T22:18:05.982Z,101074.75
2023-04-05T22:23:09.032Z,101073.16
2023-04-05T22:28:12.032Z,101088.66
2023-04-05T22:33:15.212Z,101067.03
2023-04-05T22:38:18.334Z,101072.50
2023-04-05T22:43:21.302Z,101092.38
2023-04-05T22:48:24.244Z,101086.41
2023-04-05T22:53:27.217Z,101087.53
2023-04-05T22:58:33.072Z,101078.38
2023-04-05T23:03:36.127Z,101088.63
2023-04-05T23:08:39.333Z,101086.22
2023-04-05T23:13:42.395Z,101084.31
2023-04-05T23:18:45.347Z,101088.91
2023-04-05T23:23:48.224Z,101084.75
2023-04-05T23:28:51.209Z,101103.97
2023-04-05T23:33:54.969Z,101096.88
2023-04-05T23:38:58.916Z,101091.28
2023-04-05T23:44:01.877Z,101080.00
2023-04-05T23:49:04.808Z,101091.94
2023-04-05T23:54:10.114Z,101086.78
2023-04-05T23:59:13.703Z,101093.72
